Time;durP1;ratioP1;P1;durP2;ratioP2;P2;SDS_P1;SDS_P2;PMS_P1;PMS_P2;Temp;Humidity;BMP_temperature;BMP_pressure;BME280_temperature;BME280_humidity;BME280_pressure;Samples;Min_cycle;Max_cycle;Signal;HPM_P1;HPM_P2
2020/12/04 00:01:36;;;;;;;3.85;2.20;;;2.80;99.90;;;;;;4941302;29;20020;-95
2020/12/04 00:04:03;;;;;;;3.38;2.17;;;2.80;99.90;;;;;;4941832;29;20107;-96
2020/12/04 00:06:32;;;;;;;2.63;1.92;;;2.80;99.90;;;;;;4942168;29;20039;-96
2020/12/04 00:08:57;;;;;;;2.83;1.98;;;2.80;99.90;;;;;;4943737;29;20020;-96
2020/12/04 00:14:00;;;;;;;3.55;2.67;;;2.80;99.90;;;;;;5616302;23;20043;-96
2020/12/04 00:16:27;;;;;;;3.38;2.05;;;2.80;99.90;;;;;;5001129;28;20034;-95
2020/12/04 00:19:27;;;;;;;2.70;1.92;;;2.80;99.90;;;;;;5001046;28;20058;-96
2020/12/04 00:21:55;;;;;;;1.65;1.27;;;2.70;99.90;;;;;;5012221;28;20034;-94
2020/12/04 00:27:07;;;;;;;2.75;1.58;;;2.70;99.90;;;;;;4974513;28;20519;-95
2020/12/04 00:29:33;;;;;;;2.60;1.70;;;2.70;99.90;;;;;;4941300;29;20063;-95
2020/12/04 00:56:48;;;;;;;3.47;1.27;;;2.70;99.90;;;;;;5017534;28;20050;-96
2020/12/04 00:59:14;;;;;;;1.75;1.45;;;2.70;99.90;;;;;;5000140;28;20049;-96
2020/12/04 01:01:39;;;;;;;1.73;1.45;;;2.70;99.90;;;;;;4996206;28;20034;-96
2020/12/04 01:04:05;;;;;;;1.92;1.42;;;2.70;99.90;;;;;;5012307;28;20030;-95
2020/12/04 01:06:31;;;;;;;1.60;1.38;;;2.70;99.90;;;;;;5013138;28;20052;-95
2020/12/04 01:08:57;;;;;;;2.15;1.55;;;2.70;99.90;;;;;;5012128;28;20101;-96
2020/12/04 01:11:25;;;;;;;1.70;1.60;;;2.70;99.90;;;;;;5013264;28;20070;-95
2020/12/04 01:13:51;;;;;;;2.42;2.00;;;2.70;99.90;;;;;;4997304;28;20094;-95
2020/12/04 01:16:17;;;;;;;3.25;2.20;;;2.70;99.90;;;;;;5009456;28;20037;-95
2020/12/04 01:18:43;;;;;;;2.33;1.75;;;2.70;99.90;;;;;;5009655;28;20030;-94
2020/12/04 01:21:12;;;;;;;3.33;1.70;;;2.70;99.90;;;;;;5011983;28;20092;-95
2020/12/04 01:23:38;;;;;;;2.13;1.67;;;2.70;99.90;;;;;;5009875;28;20026;-96
2020/12/04 01:26:08;;;;;;;1.95;1.42;;;2.70;99.90;;;;;;5012800;28;20093;-95
2020/12/04 01:31:38;;;;;;;0.50;0.50;;;2.60;99.90;;;;;;790546;23;20386;-94
2020/12/04 01:49:42;;;;;;;0.20;0.20;;;2.60;99.90;;;;;;5103532;23;20029;-95
2020/12/04 01:52:09;;;;;;;0.30;0.30;;;2.60;99.90;;;;;;5035757;28;20042;-94
2020/12/04 03:11:26;;;;;;;2.72;0.50;;;2.80;99.90;;;;;;5014674;28;20077;-94
2020/12/04 03:13:52;;;;;;;0.40;0.40;;;2.80;99.90;;;;;;4999761;28;20018;-95
2020/12/04 03:16:18;;;;;;;0.80;0.80;;;2.80;99.90;;;;;;5015489;28;20030;-96
2020/12/04 03:18:44;;;;;;;0.65;0.63;;;2.80;99.90;;;;;;5001024;28;20041;-94
2020/12/04 03:21:10;;;;;;;0.55;0.55;;;2.80;99.90;;;;;;5018989;28;20089;-96
2020/12/04 03:23:36;;;;;;;1.35;0.80;;;2.80;99.90;;;;;;5003011;28;20018;-95
2020/12/04 03:26:01;;;;;;;0.80;0.80;;;2.80;99.90;;;;;;5106884;23;20087;-94
2020/12/04 03:28:27;;;;;;;0.98;0.70;;;2.80;99.90;;;;;;4998710;28;20038;-94
2020/12/04 03:30:53;;;;;;;0.80;0.75;;;2.80;99.90;;;;;;4996708;28;20030;-95
2020/12/04 03:33:22;;;;;;;0.60;0.60;;;2.80;99.90;;;;;;5267575;23;20038;-96
2020/12/04 03:35:48;;;;;;;0.57;0.50;;;2.80;99.90;;;;;;5003647;28;20041;-96
2020/12/04 03:38:15;;;;;;;0.70;0.70;;;2.80;99.90;;;;;;5232682;23;20055;-96
2020/12/04 03:40:42;;;;;;;0.80;0.80;;;2.80;99.90;;;;;;4997675;28;20007;-96
2020/12/04 03:43:08;;;;;;;0.70;0.70;;;2.80;99.90;;;;;;4997199;28;20050;-96
2020/12/04 03:45:34;;;;;;;0.80;0.80;;;2.80;99.90;;;;;;4998275;28;20031;-96
2020/12/04 03:48:00;;;;;;;0.70;0.70;;;2.80;99.90;;;;;;5000385;28;20034;-95
2020/12/04 03:50:25;;;;;;;0.60;0.60;;;2.80;99.90;;;;;;4995483;28;20039;-95
2020/12/04 03:52:51;;;;;;;0.73;0.60;;;2.80;99.90;;;;;;4994166;28;20031;-96
2020/12/04 03:55:17;;;;;;;0.57;0.57;;;2.80;99.90;;;;;;4995583;28;20034;-96
2020/12/04 03:57:43;;;;;;;1.10;0.77;;;2.80;99.90;;;;;;4997192;28;20031;-96
2020/12/04 04:00:11;;;;;;;1.55;0.70;;;2.80;99.90;;;;;;4993865;28;20043;-96
2020/12/04 04:02:39;;;;;;;0.63;0.63;;;2.80;99.90;;;;;;4991718;28;20030;-96
2020/12/04 04:05:05;;;;;;;1.08;0.90;;;2.80;99.90;;;;;;4990307;28;20031;-96
2020/12/04 04:07:31;;;;;;;1.23;0.80;;;2.80;99.90;;;;;;4991460;28;20175;-96
2020/12/04 04:09:57;;;;;;;1.95;1.83;;;2.70;99.90;;;;;;4990439;28;20098;-95
2020/12/04 04:12:22;;;;;;;1.17;0.80;;;2.80;99.90;;;;;;4990455;28;20058;-95
2020/12/04 04:14:48;;;;;;;0.75;0.75;;;2.80;99.90;;;;;;4988753;28;20054;-96
2020/12/04 04:17:14;;;;;;;0.88;0.70;;;2.80;99.90;;;;;;4992279;28;20023;-95
2020/12/04 04:19:41;;;;;;;0.90;0.90;;;2.80;99.90;;;;;;4998522;28;20018;-96
2020/12/04 04:22:07;;;;;;;1.50;0.98;;;2.80;99.90;;;;;;4996871;28;20057;-96
2020/12/04 04:24:34;;;;;;;0.88;0.88;;;2.80;99.90;;;;;;4997068;28;20035;-96
2020/12/04 04:27:00;;;;;;;1.15;1.00;;;2.80;99.90;;;;;;4997662;28;20022;-95
2020/12/04 04:29:26;;;;;;;1.02;0.95;;;2.70;99.90;;;;;;4993504;28;20038;-96
2020/12/04 04:31:51;;;;;;;1.40;0.95;;;2.80;99.90;;;;;;4995766;28;20029;-96
2020/12/04 04:34:21;;;;;;;1.05;0.95;;;2.80;99.90;;;;;;4996619;28;20030;-96
2020/12/04 04:36:47;;;;;;;0.90;0.90;;;2.70;99.90;;;;;;4995308;28;20082;-96
2020/12/04 04:39:12;;;;;;;0.80;0.80;;;2.80;99.90;;;;;;4995164;28;20051;-96
2020/12/04 04:41:38;;;;;;;1.15;0.70;;;2.70;99.90;;;;;;4976162;28;20038;-96
2020/12/04 04:44:05;;;;;;;0.70;0.70;;;2.70;99.90;;;;;;4992781;28;20712;-96
2020/12/04 04:46:45;;;;;;;1.08;0.98;;;2.70;99.90;;;;;;4991843;28;20026;-96
2020/12/04 04:49:27;;;;;;;1.20;0.80;;;2.80;99.90;;;;;;4981474;28;20031;-96
2020/12/04 04:51:56;;;;;;;1.52;1.42;;;2.80;99.90;;;;;;4993098;28;20123;-96
2020/12/04 04:54:26;;;;;;;0.70;0.70;;;2.80;99.90;;;;;;4991471;28;20050;-96
2020/12/04 04:56:52;;;;;;;1.07;0.97;;;2.70;99.90;;;;;;4987463;28;20022;-96
2020/12/04 04:59:22;;;;;;;0.82;0.82;;;2.70;99.90;;;;;;4981122;28;20081;-96
2020/12/04 05:01:49;;;;;;;1.00;0.80;;;2.70;99.90;;;;;;4970113;28;20377;-95
2020/12/04 05:04:16;;;;;;;1.33;0.90;;;2.80;99.90;;;;;;4978826;28;20023;-95
2020/12/04 05:06:43;;;;;;;0.70;0.70;;;2.70;99.90;;;;;;4978637;28;20049;-95
2020/12/04 05:09:15;;;;;;;0.82;0.80;;;2.70;99.90;;;;;;4977801;28;20018;-95
2020/12/04 05:11:55;;;;;;;1.17;0.90;;;2.70;99.90;;;;;;4978896;28;20023;-95
2020/12/04 05:14:24;;;;;;;1.17;0.98;;;2.70;99.90;;;;;;4978013;28;20094;-96
2020/12/04 05:16:58;;;;;;;1.00;0.90;;;2.80;99.90;;;;;;4979287;28;20018;-96
2020/12/04 05:19:32;;;;;;;1.83;0.95;;;2.80;99.90;;;;;;4987375;28;20046;-96
2020/12/04 05:22:19;;;;;;;0.90;0.90;;;2.70;99.90;;;;;;4994559;28;20086;-96
2020/12/04 05:24:48;;;;;;;1.25;1.15;;;2.80;99.90;;;;;;4996376;28;20046;-95
2020/12/04 05:27:29;;;;;;;1.08;0.90;;;2.80;99.90;;;;;;4995825;28;20046;-96
2020/12/04 05:30:41;;;;;;;0.85;0.77;;;2.80;99.90;;;;;;4995072;28;20041;-95
2020/12/04 05:36:28;;;;;;;0.93;0.90;;;2.80;99.90;;;;;;4995405;28;20070;-95
2020/12/04 05:38:58;;;;;;;4.25;0.80;;;2.80;99.90;;;;;;4969627;28;20117;-96
2020/12/04 05:41:28;;;;;;;0.70;0.70;;;2.80;99.90;;;;;;4974069;28;20030;-95
2020/12/04 05:44:21;;;;;;;0.85;0.70;;;2.80;99.90;;;;;;4992207;28;20019;-95
2020/12/04 05:47:00;;;;;;;0.93;0.80;;;2.80;99.90;;;;;;4990578;28;20027;-94
2020/12/04 05:49:41;;;;;;;0.82;0.68;;;2.80;99.90;;;;;;4988786;28;20030;-95
2020/12/04 05:52:33;;;;;;;0.98;0.70;;;2.80;99.90;;;;;;4983647;28;20555;-96
2020/12/04 05:55:01;;;;;;;1.00;0.90;;;2.70;99.90;;;;;;4986922;28;20058;-96
2020/12/04 05:57:28;;;;;;;0.50;0.50;;;2.80;99.90;;;;;;4979557;28;20038;-96
2020/12/04 06:00:03;;;;;;;1.25;0.88;;;2.80;99.90;;;;;;4988061;28;20054;-95
2020/12/04 06:02:29;;;;;;;0.70;0.70;;;2.80;99.90;;;;;;4990331;28;20022;-95
2020/12/04 06:04:55;;;;;;;0.90;0.90;;;2.80;99.90;;;;;;4988352;28;20042;-95
2020/12/04 06:07:27;;;;;;;0.88;0.88;;;2.80;99.90;;;;;;4965676;28;20130;-94
2020/12/04 06:10:13;;;;;;;0.93;0.88;;;2.80;99.90;;;;;;4978831;28;20062;-93
2020/12/04 06:12:38;;;;;;;0.68;0.68;;;2.70;99.90;;;;;;4975226;28;20551;-94
2020/12/04 06:15:22;;;;;;;0.80;0.80;;;2.70;99.90;;;;;;4975505;28;20031;-94
2020/12/04 06:17:49;;;;;;;1.92;0.80;;;2.70;99.90;;;;;;4976590;28;20027;-95
2020/12/04 06:20:22;;;;;;;0.70;0.70;;;2.70;99.90;;;;;;4976189;28;20035;-94
2020/12/04 06:23:04;;;;;;;0.60;0.60;;;2.70;99.90;;;;;;4975699;28;20156;-93
2020/12/04 06:25:52;;;;;;;0.60;0.60;;;2.70;99.90;;;;;;4958518;28;20031;-94
2020/12/04 06:28:19;;;;;;;0.70;0.70;;;2.70;99.90;;;;;;4964840;28;20026;-95
2020/12/04 06:31:04;;;;;;;0.70;0.70;;;2.70;99.90;;;;;;4972924;28;20038;-94
2020/12/04 06:33:41;;;;;;;0.60;0.60;;;2.60;99.90;;;;;;4976119;28;20117;-95
2020/12/04 06:36:36;;;;;;;0.57;0.57;;;2.60;99.90;;;;;;4978277;28;20027;-95
2020/12/04 06:39:04;;;;;;;0.80;0.80;;;2.60;99.90;;;;;;4974221;28;20047;-95
2020/12/04 06:41:45;;;;;;;0.60;0.60;;;2.60;99.90;;;;;;4986499;28;20026;-95
2020/12/04 06:44:32;;;;;;;0.70;0.70;;;2.60;99.90;;;;;;4981013;28;20035;-96
2020/12/04 06:47:00;;;;;;;0.60;0.60;;;2.60;99.90;;;;;;4978672;28;20031;-95
2020/12/04 06:49:41;;;;;;;0.35;0.35;;;2.60;99.90;;;;;;4979787;28;20053;-94
2020/12/04 06:52:19;;;;;;;0.60;0.50;;;2.60;99.90;;;;;;4982081;28;20050;-96
2020/12/04 06:54:51;;;;;;;0.52;0.52;;;2.60;99.90;;;;;;4997424;28;20035;-96
2020/12/04 06:57:34;;;;;;;1.10;0.70;;;2.50;99.90;;;;;;5313466;23;20029;-96
2020/12/04 06:59:59;;;;;;;0.70;0.70;;;2.50;99.90;;;;;;5012446;28;20046;-95
2020/12/04 07:02:25;;;;;;;0.40;0.40;;;2.50;99.90;;;;;;5030504;28;20052;-95
2020/12/04 07:31:27;;;;;;;0.60;0.60;;;2.40;99.90;;;;;;5151688;23;20024;-95
2020/12/04 07:34:13;;;;;;;0.40;0.40;;;2.40;99.90;;;;;;4985843;28;20051;-95
2020/12/04 07:37:00;;;;;;;0.50;0.50;;;2.40;99.90;;;;;;4961692;28;20027;-94
2020/12/04 07:39:30;;;;;;;0.60;0.60;;;2.40;99.90;;;;;;4983511;28;20050;-94
2020/12/04 07:41:58;;;;;;;0.40;0.40;;;2.40;99.90;;;;;;4951436;28;20066;-95
2020/12/04 07:44:34;;;;;;;0.40;0.40;;;2.40;99.90;;;;;;4981309;28;20031;-95
2020/12/04 07:47:02;;;;;;;0.45;0.45;;;2.40;99.90;;;;;;4968988;28;20043;-94
2020/12/04 07:49:48;;;;;;;0.20;0.20;;;2.40;99.90;;;;;;4969784;29;20031;-96
2020/12/04 07:53:11;;;;;;;0.60;0.60;;;2.40;99.90;;;;;;4964752;28;20027;-94
2020/12/04 07:55:41;;;;;;;0.70;0.70;;;2.30;99.90;;;;;;4870503;29;20048;-95
2020/12/04 07:58:15;;;;;;;0.50;0.50;;;2.30;99.90;;;;;;4872137;29;20033;-94
2020/12/04 08:01:45;;;;;;;0.40;0.40;;;2.30;99.90;;;;;;4874041;29;20057;-96
2020/12/04 08:04:18;;;;;;;0.30;0.30;;;2.40;99.90;;;;;;5229074;23;20061;-95
2020/12/04 08:06:44;;;;;;;0.55;0.40;;;2.30;99.90;;;;;;4965725;28;20022;-95
2020/12/04 08:17:11;;;;;;;0.40;0.40;;;2.40;99.90;;;;;;4973102;28;20047;-95
2020/12/04 08:19:38;;;;;;;0.40;0.40;;;2.40;99.90;;;;;;4961693;28;20051;-95
2020/12/04 08:22:08;;;;;;;0.30;0.30;;;2.40;99.90;;;;;;4966287;28;20046;-94
2020/12/04 08:24:42;;;;;;;0.30;0.30;;;2.40;99.90;;;;;;4967403;28;20027;-96
2020/12/04 08:27:13;;;;;;;0.40;0.40;;;2.40;99.90;;;;;;4973450;28;20038;-95
2020/12/04 08:29:46;;;;;;;0.30;0.30;;;2.40;99.90;;;;;;5263898;23;20041;-93
2020/12/04 08:32:23;;;;;;;0.47;0.30;;;2.40;99.90;;;;;;4989091;28;20022;-96
2020/12/04 09:35:25;;;;;;;0.85;0.60;;;2.60;99.90;;;;;;5888947;23;20042;-94
2020/12/04 11:37:53;;;;;;;1.67;0.90;;;2.30;99.90;;;;;;5817498;23;20347;-96
2020/12/04 11:43:17;;;;;;;1.20;1.10;;;2.30;99.90;;;;;;5689642;23;20054;-96
2020/12/04 11:45:51;;;;;;;0.73;0.73;;;2.30;99.90;;;;;;4996826;28;20031;-96
2020/12/04 11:48:22;;;;;;;1.45;0.90;;;2.30;99.90;;;;;;4984197;28;20027;-96
2020/12/04 11:51:04;;;;;;;;;;;2.20;99.90;;;;;;4982942;28;20026;-96
2020/12/04 11:54:00;;;;;;;0.70;0.70;;;2.20;99.90;;;;;;4983700;28;19906;-95
2020/12/04 11:56:46;;;;;;;0.68;0.68;;;2.20;99.90;;;;;;4986800;28;20019;-96
2020/12/04 11:59:31;;;;;;;0.55;0.55;;;2.20;99.90;;;;;;4985194;28;20487;-95
2020/12/04 12:02:26;;;;;;;0.47;0.40;;;2.10;99.90;;;;;;4988333;28;20045;-96
2020/12/04 12:05:16;;;;;;;0.77;0.68;;;2.10;99.90;;;;;;4981046;28;20041;-96
2020/12/04 12:08:01;;;;;;;;;;;;;;;;;;;;;
2020/12/04 12:10:39;;;;;;;0.68;0.57;;;2.10;99.90;;;;;;4979232;28;20306;-96
2020/12/04 12:13:33;;;;;;;0.68;0.60;;;2.10;99.90;;;;;;4975754;28;20031;-96
2020/12/04 12:16:26;;;;;;;0.60;0.60;;;2.00;99.90;;;;;;4982903;28;20041;-96
2020/12/04 12:22:20;;;;;;;0.63;0.63;;;2.00;99.90;;;;;;4933748;29;20040;-95
2020/12/04 12:25:07;;;;;;;0.30;0.30;;;2.00;99.90;;;;;;4934264;29;20020;-95
2020/12/04 12:27:52;;;;;;;0.52;0.32;;;2.00;99.90;;;;;;4924443;29;20119;-96
2020/12/04 12:30:50;;;;;;;0.17;0.17;;;1.90;99.90;;;;;;4936855;29;20028;-96
2020/12/04 12:33:24;;;;;;;0.20;0.20;;;1.90;99.90;;;;;;4929904;29;20033;-96
2020/12/04 12:36:01;;;;;;;0.40;0.20;;;1.90;99.90;;;;;;4934717;29;20048;-96
2020/12/04 12:38:34;;;;;;;0.20;0.20;;;1.90;99.90;;;;;;4932995;29;20021;-96
2020/12/04 12:41:30;;;;;;;0.20;0.20;;;1.90;99.90;;;;;;4915003;29;20039;-95
2020/12/04 12:44:07;;;;;;;0.17;0.17;;;1.90;99.90;;;;;;4901855;29;20052;-96
2020/12/04 12:46:33;;;;;;;0.40;0.40;;;1.80;99.90;;;;;;4905547;29;20072;-96
2020/12/04 12:49:15;;;;;;;;;;;;;;;;;;;;;
2020/12/04 12:51:43;;;;;;;0.25;0.25;;;1.80;99.90;;;;;;4894070;29;20119;-96
2020/12/04 12:54:11;;;;;;;1.40;0.57;;;1.80;99.90;;;;;;4877884;29;20021;-96
2020/12/04 12:56:46;;;;;;;0.10;0.10;;;1.80;99.90;;;;;;4904269;29;20024;-96
2020/12/04 12:59:14;;;;;;;1.00;0.32;;;1.80;99.90;;;;;;4935940;29;20058;-96
2020/12/04 13:01:43;;;;;;;0.38;0.20;;;1.80;99.90;;;;;;4937414;29;20028;-96
2020/12/04 13:04:08;;;;;;;1.55;0.20;;;1.70;99.90;;;;;;4932769;29;20027;-96
2020/12/04 13:06:34;;;;;;;1.90;1.55;;;1.70;99.90;;;;;;4930008;29;20063;-94
2020/12/04 13:09:00;;;;;;;0.20;0.20;;;1.70;99.90;;;;;;4930900;29;20429;-95
2020/12/04 13:11:26;;;;;;;0.38;0.30;;;1.60;99.90;;;;;;4929923;29;20022;-94
2020/12/04 13:13:51;;;;;;;1.38;0.95;;;1.60;99.90;;;;;;4929531;29;20091;-95
2020/12/04 13:16:17;;;;;;;4.07;0.80;;;1.60;99.90;;;;;;4931240;29;20019;-96
2020/12/04 13:19:09;;;;;;;;;;;;;;;;;;;;;
2020/12/04 13:24:39;;;;;;;0.30;0.30;;;1.50;99.90;;;;;;4888583;29;20049;-94
2020/12/04 13:27:06;;;;;;;0.82;0.43;;;1.50;99.90;;;;;;4889344;29;20124;-95
2020/12/04 13:29:32;;;;;;;1.35;0.50;;;1.50;99.90;;;;;;4902927;29;20040;-95
2020/12/04 13:31:59;;;;;;;0.40;0.40;;;1.50;99.90;;;;;;4887124;29;20114;-95
2020/12/04 13:34:26;;;;;;;0.30;0.30;;;1.50;99.90;;;;;;4902990;29;20032;-95
2020/12/04 13:36:52;;;;;;;0.70;0.50;;;1.50;99.90;;;;;;4888241;29;20039;-95
2020/12/04 13:39:19;;;;;;;0.30;0.28;;;1.50;99.90;;;;;;4886986;29;20041;-96
2020/12/04 13:41:45;;;;;;;0.65;0.47;;;1.50;99.90;;;;;;4889572;29;21111;-94
2020/12/04 13:44:12;;;;;;;0.38;0.30;;;1.50;99.90;;;;;;4889817;29;20127;-95
2020/12/04 13:46:39;;;;;;;0.30;0.30;;;1.50;99.90;;;;;;4873152;29;20061;-96
2020/12/04 13:49:05;;;;;;;0.80;0.80;;;1.60;99.90;;;;;;4880651;29;20021;-94
2020/12/04 13:51:40;;;;;;;0.32;0.32;;;1.60;99.90;;;;;;4944885;29;20027;-96
2020/12/04 13:54:07;;;;;;;0.43;0.32;;;1.60;99.90;;;;;;4931704;29;20106;-95
2020/12/04 13:56:35;;;;;;;0.65;0.50;;;1.60;99.90;;;;;;4931333;29;20027;-96
2020/12/04 13:59:01;;;;;;;1.02;0.85;;;1.60;99.90;;;;;;4946493;29;20026;-96
2020/12/04 14:01:27;;;;;;;0.35;0.30;;;1.70;99.90;;;;;;4930359;29;20043;-95
2020/12/04 14:03:55;;;;;;;2.40;0.40;;;1.70;99.90;;;;;;4930975;29;20478;-96
2020/12/04 14:06:20;;;;;;;0.40;0.38;;;1.70;99.90;;;;;;4946251;29;20028;-96
2020/12/04 14:08:46;;;;;;;0.40;0.40;;;1.70;99.90;;;;;;4947095;28;20094;-96
2020/12/04 17:03:27;;;;;;;7.13;4.97;;;2.60;99.90;;;;;;5505719;23;20086;-96
2020/12/04 17:05:55;;;;;;;8.45;5.72;;;2.60;99.90;;;;;;5733425;23;20408;-96
2020/12/04 17:08:22;;;;;;;8.40;5.53;;;2.60;99.90;;;;;;5012936;23;20150;-96
2020/12/04 17:10:48;;;;;;;8.57;6.18;;;2.60;99.90;;;;;;5189020;23;20054;-95
2020/12/04 17:23:43;;;;;;;12.88;8.15;;;2.70;99.90;;;;;;4960910;28;20043;-96
2020/12/04 17:51:38;;;;;;;13.82;8.75;;;2.60;99.90;;;;;;5009867;28;20061;-93
2020/12/04 17:54:04;;;;;;;12.43;7.70;;;2.70;99.90;;;;;;4962002;28;20100;-94
2020/12/04 17:56:31;;;;;;;12.50;7.75;;;2.80;99.90;;;;;;4976882;28;20269;-96
2020/12/04 17:58:56;;;;;;;11.20;7.47;;;2.80;99.90;;;;;;4977202;28;20068;-95
2020/12/04 18:01:22;;;;;;;13.70;8.35;;;2.90;99.90;;;;;;4992559;28;20057;-93
2020/12/04 18:03:48;;;;;;;11.30;7.43;;;3.00;99.90;;;;;;4976964;28;20022;-93
2020/12/04 18:06:14;;;;;;;11.98;6.75;;;3.00;99.90;;;;;;4977546;28;20080;-95
2020/12/04 18:08:40;;;;;;;11.32;7.32;;;3.10;99.90;;;;;;4977491;28;20022;-94
2020/12/04 18:11:06;;;;;;;16.33;9.93;;;3.10;99.90;;;;;;4977332;28;20034;-93
2020/12/04 18:13:32;;;;;;;15.02;9.07;;;3.20;99.90;;;;;;4978061;28;20018;-93
2020/12/04 18:15:58;;;;;;;12.18;7.57;;;3.10;99.90;;;;;;4977219;28;20037;-93
2020/12/04 18:18:24;;;;;;;13.93;8.55;;;3.20;99.90;;;;;;4974154;28;20034;-94
2020/12/04 18:20:50;;;;;;;11.48;7.55;;;3.20;99.90;;;;;;4973131;28;20046;-94
2020/12/04 18:23:17;;;;;;;12.38;8.57;;;3.20;99.90;;;;;;4991837;28;20027;-93
2020/12/04 18:25:43;;;;;;;16.77;9.70;;;3.20;99.90;;;;;;4994813;28;20030;-93
2020/12/04 18:28:09;;;;;;;11.70;7.45;;;3.20;99.90;;;;;;4977366;28;20037;-93
2020/12/04 18:30:34;;;;;;;11.80;7.63;;;3.20;99.90;;;;;;4977290;28;20556;-94
2020/12/04 18:33:00;;;;;;;13.52;8.50;;;3.10;99.90;;;;;;4985693;28;20122;-95
2020/12/04 18:35:26;;;;;;;15.00;8.07;;;3.20;99.90;;;;;;4991481;28;20025;-93
2020/12/04 18:37:51;;;;;;;14.73;8.95;;;3.10;99.90;;;;;;4993878;28;20038;-94
2020/12/04 18:40:17;;;;;;;12.20;7.32;;;3.10;99.90;;;;;;4993924;28;20088;-92
2020/12/04 18:42:43;;;;;;;12.32;7.90;;;3.10;99.90;;;;;;4987597;28;20065;-93
2020/12/04 18:45:08;;;;;;;16.05;8.07;;;3.10;99.90;;;;;;4988720;28;20027;-93
2020/12/04 18:47:34;;;;;;;15.45;8.32;;;3.20;99.90;;;;;;4984444;28;20081;-94
2020/12/04 18:50:02;;;;;;;14.50;8.80;;;3.20;99.90;;;;;;4999163;28;20057;-94
2020/12/04 18:52:28;;;;;;;14.90;8.88;;;3.20;99.90;;;;;;4985551;28;20022;-94
2020/12/04 18:54:54;;;;;;;16.25;8.75;;;3.10;99.90;;;;;;5017030;28;20525;-93
2020/12/04 18:57:25;;;;;;;13.07;8.23;;;3.10;99.90;;;;;;4989632;28;20026;-94
2020/12/04 18:59:50;;;;;;;16.63;9.63;;;3.10;99.90;;;;;;4985860;28;20040;-94
2020/12/04 19:02:16;;;;;;;16.95;9.85;;;3.10;99.90;;;;;;5008217;28;20026;-94
2020/12/04 19:04:42;;;;;;;13.85;9.05;;;3.10;99.90;;;;;;4992137;28;20033;-93
2020/12/04 19:07:07;;;;;;;18.27;9.70;;;3.10;99.90;;;;;;4996119;28;20018;-92
2020/12/04 19:09:33;;;;;;;15.85;9.77;;;3.00;99.90;;;;;;4993781;28;20136;-94
2020/12/04 19:11:59;;;;;;;15.57;9.57;;;3.10;99.90;;;;;;4996951;28;20026;-92
2020/12/04 19:14:24;;;;;;;14.93;9.68;;;3.10;99.90;;;;;;4992408;28;20088;-94
2020/12/04 19:16:52;;;;;;;16.25;9.30;;;3.10;99.90;;;;;;4991403;28;20030;-93
2020/12/04 19:19:18;;;;;;;16.30;9.20;;;3.10;99.90;;;;;;5000414;28;20030;-93
2020/12/04 19:21:51;;;;;;;12.07;8.20;;;3.10;99.90;;;;;;5000906;28;20068;-94
2020/12/04 19:24:17;;;;;;;14.35;8.40;;;3.10;99.90;;;;;;5001199;28;20487;-96
2020/12/04 19:26:48;;;;;;;17.98;9.75;;;3.20;99.90;;;;;;4989866;28;20030;-93
2020/12/04 19:29:20;;;;;;;18.10;9.85;;;3.10;99.90;;;;;;4997803;28;20052;-95
2020/12/04 19:31:46;;;;;;;15.10;9.18;;;3.10;99.90;;;;;;5000882;28;20030;-91
2020/12/04 19:34:12;;;;;;;19.70;9.45;;;3.10;99.90;;;;;;4994705;28;20486;-93
2020/12/04 19:36:38;;;;;;;16.40;9.52;;;3.10;99.90;;;;;;4988744;28;20058;-93
2020/12/04 19:39:05;;;;;;;13.63;8.68;;;3.10;99.90;;;;;;4987627;28;20057;-92
2020/12/04 19:41:31;;;;;;;16.83;9.38;;;3.20;99.90;;;;;;4988037;28;20032;-93
2020/12/04 19:43:57;;;;;;;16.25;8.98;;;3.20;99.90;;;;;;4996790;28;20033;-93
2020/12/04 19:46:29;;;;;;;15.40;8.73;;;3.20;99.90;;;;;;4990508;28;20467;-93
2020/12/04 19:48:55;;;;;;;15.18;8.15;;;3.20;99.90;;;;;;4988412;28;20030;-92
2020/12/04 19:51:22;;;;;;;15.00;7.90;;;3.20;99.90;;;;;;4995590;28;20137;-93
2020/12/04 19:53:48;;;;;;;14.25;8.35;;;3.20;99.90;;;;;;4991188;28;20032;-93
2020/12/04 19:56:14;;;;;;;14.50;8.27;;;3.20;99.90;;;;;;4989855;28;20050;-92
2020/12/04 19:58:40;;;;;;;12.50;7.15;;;3.20;99.90;;;;;;5005767;28;20052;-93
2020/12/04 20:01:07;;;;;;;13.95;7.43;;;3.20;99.90;;;;;;5013987;28;20118;-93
2020/12/04 20:03:34;;;;;;;14.65;8.18;;;3.20;99.90;;;;;;5007520;28;20017;-93
2020/12/04 20:06:01;;;;;;;18.00;9.98;;;3.30;99.90;;;;;;5006166;28;20029;-92
2020/12/04 20:08:28;;;;;;;14.05;8.30;;;3.30;99.90;;;;;;4994630;28;20023;-92
2020/12/04 20:10:55;;;;;;;17.45;8.48;;;3.20;99.90;;;;;;4994568;28;20045;-92
2020/12/04 20:13:20;;;;;;;19.90;10.52;;;3.20;99.90;;;;;;5000157;28;20112;-92
2020/12/04 20:15:46;;;;;;;21.75;11.43;;;3.20;99.90;;;;;;4998981;28;20151;-93
2020/12/04 20:18:14;;;;;;;21.55;11.13;;;3.10;99.90;;;;;;4998901;28;20077;-94
2020/12/04 20:20:47;;;;;;;22.08;11.88;;;3.10;99.90;;;;;;4988486;28;20030;-93
2020/12/04 20:23:13;;;;;;;20.08;10.30;;;3.00;99.90;;;;;;4983595;28;20109;-93
2020/12/04 20:25:39;;;;;;;17.85;9.35;;;3.00;99.90;;;;;;4989908;28;20033;-91
2020/12/04 20:28:06;;;;;;;17.33;9.02;;;2.90;99.90;;;;;;4987085;28;20089;-92
2020/12/04 20:30:32;;;;;;;22.10;11.60;;;2.90;99.90;;;;;;4988229;28;20095;-93
2020/12/04 20:32:57;;;;;;;17.42;10.48;;;2.90;99.90;;;;;;4997542;28;20606;-93
2020/12/04 20:35:27;;;;;;;25.35;12.20;;;2.80;99.90;;;;;;4998229;28;20033;-93
2020/12/04 20:37:53;;;;;;;18.52;9.85;;;2.80;99.90;;;;;;4993199;28;20052;-93
2020/12/04 20:40:20;;;;;;;18.20;10.90;;;2.80;99.90;;;;;;4989556;28;20049;-92
2020/12/04 20:42:46;;;;;;;20.20;10.32;;;2.80;99.90;;;;;;5004124;28;20105;-93
2020/12/04 20:45:11;;;;;;;21.27;11.25;;;2.80;99.90;;;;;;5001295;28;20111;-92
2020/12/04 20:47:37;;;;;;;19.40;10.38;;;2.80;99.90;;;;;;4988195;28;20033;-93
2020/12/04 20:50:07;;;;;;;22.05;10.68;;;2.80;99.90;;;;;;5005268;28;20073;-92
2020/12/04 20:52:33;;;;;;;21.30;11.15;;;2.80;99.90;;;;;;4987952;28;20041;-93
2020/12/04 20:54:58;;;;;;;23.27;11.63;;;2.80;99.90;;;;;;5011981;28;20467;-94
2020/12/04 20:57:24;;;;;;;21.10;10.73;;;2.80;99.90;;;;;;4986595;28;20026;-95
2020/12/04 20:59:49;;;;;;;18.27;10.10;;;2.70;99.90;;;;;;4987283;28;20042;-93
2020/12/04 21:02:15;;;;;;;21.80;10.68;;;2.70;99.90;;;;;;4998121;28;20022;-93
2020/12/04 21:04:41;;;;;;;19.55;10.43;;;2.70;99.90;;;;;;4994493;28;20044;-93
2020/12/04 21:07:07;;;;;;;17.17;9.27;;;2.70;99.90;;;;;;4992197;28;20095;-94
2020/12/04 21:09:33;;;;;;;17.17;8.70;;;2.70;99.90;;;;;;4992086;28;20042;-92
2020/12/04 21:11:58;;;;;;;16.55;8.80;;;2.70;99.90;;;;;;4974809;28;20038;-92
2020/12/04 21:14:24;;;;;;;18.75;9.77;;;2.60;99.90;;;;;;4989001;28;20093;-93
2020/12/04 21:16:51;;;;;;;16.55;8.40;;;2.60;99.90;;;;;;4992061;28;20029;-92
2020/12/04 21:19:17;;;;;;;13.15;7.20;;;2.60;99.90;;;;;;4993941;28;20038;-91
2020/12/04 21:21:42;;;;;;;14.55;7.75;;;2.60;99.90;;;;;;4989985;28;20072;-93
2020/12/04 21:24:08;;;;;;;13.77;7.70;;;2.50;99.90;;;;;;4997180;28;20091;-91
2020/12/04 21:26:34;;;;;;;13.68;7.40;;;2.50;99.90;;;;;;4997105;28;20018;-92
2020/12/04 21:29:00;;;;;;;14.98;7.88;;;2.50;99.90;;;;;;4996863;28;20034;-93
2020/12/04 21:31:26;;;;;;;15.38;7.57;;;2.40;99.90;;;;;;4997226;28;20537;-93
2020/12/04 21:33:51;;;;;;;14.95;8.05;;;2.40;99.90;;;;;;4989663;28;20061;-93
2020/12/04 21:36:17;;;;;;;16.60;8.40;;;2.40;99.90;;;;;;4991284;28;20083;-92
2020/12/04 21:38:43;;;;;;;15.43;8.38;;;2.30;99.90;;;;;;4996850;28;20037;-92
2020/12/04 21:41:09;;;;;;;13.50;6.90;;;2.30;99.90;;;;;;4993804;28;20049;-92
2020/12/04 21:43:35;;;;;;;10.80;6.60;;;2.30;99.90;;;;;;4994325;28;20462;-94
2020/12/04 21:46:01;;;;;;;11.10;6.65;;;2.30;99.90;;;;;;4987625;28;20084;-93
2020/12/04 21:48:27;;;;;;;11.30;6.03;;;2.30;99.90;;;;;;5014261;28;20037;-92
2020/12/04 21:50:52;;;;;;;10.95;6.07;;;2.20;99.90;;;;;;5014020;28;20132;-94
2020/12/04 21:53:18;;;;;;;11.55;6.18;;;2.20;99.90;;;;;;4982202;28;20042;-93
2020/12/04 21:55:44;;;;;;;11.00;5.63;;;2.20;99.90;;;;;;4996387;28;20113;-92
2020/12/04 21:58:09;;;;;;;10.15;5.93;;;2.10;99.90;;;;;;4997169;28;20108;-94
2020/12/04 22:00:35;;;;;;;12.95;5.90;;;2.10;99.90;;;;;;4992166;28;20125;-91
2020/12/04 22:03:01;;;;;;;14.82;6.20;;;2.10;99.90;;;;;;4989198;28;20398;-94
2020/12/04 22:05:26;;;;;;;11.45;5.10;;;2.00;99.90;;;;;;4987353;28;20102;-93
2020/12/04 22:07:52;;;;;;;11.07;5.07;;;2.00;99.90;;;;;;5004113;28;20033;-93
2020/12/04 22:10:18;;;;;;;8.02;4.50;;;2.00;99.90;;;;;;4996783;28;20037;-94
2020/12/04 22:12:45;;;;;;;8.05;4.03;;;1.90;99.90;;;;;;4996518;28;20018;-92
2020/12/04 22:15:11;;;;;;;9.35;4.35;;;1.90;99.90;;;;;;4988879;28;20427;-93
2020/12/04 22:17:36;;;;;;;7.32;4.00;;;1.90;99.90;;;;;;4999714;28;20042;-94
2020/12/04 22:20:04;;;;;;;8.45;4.70;;;1.80;99.90;;;;;;4996076;28;20041;-93
2020/12/04 22:22:30;;;;;;;6.70;3.53;;;1.80;99.90;;;;;;5013884;28;20026;-94
2020/12/04 22:24:58;;;;;;;8.68;4.88;;;1.80;99.90;;;;;;4996457;28;20084;-93
2020/12/04 22:27:24;;;;;;;7.32;3.45;;;1.80;99.90;;;;;;4985071;28;20054;-91
2020/12/04 22:29:50;;;;;;;6.90;3.80;;;1.70;99.90;;;;;;4985000;28;20029;-93
2020/12/04 22:32:15;;;;;;;5.82;2.60;;;1.70;99.90;;;;;;4990601;28;20022;-91
2020/12/04 22:34:41;;;;;;;6.47;3.72;;;1.70;99.90;;;;;;4978398;28;20092;-92